Flight Track Log - Related Links

Times and Time Zones

All times are in EST time to prevent confusion due to time zone crossing. See the EVA192 flight status page for this flight to view local times or setup timezone preferences in your user account.

Time Position Orientation Groundspeed Altitude Reporting Facility
EST Latitude Longitude Course Direction KTS MPH feet Rate Location/Type
Tue 06:52:00 PM 25.5366 122.2150 52° Northeast  Level Estimated
Tue 06:53:00 PM 25.6297 122.3483 52° Northeast  Level Estimated
Tue 06:54:00 PM 25.7226 122.4818 52° Northeast  Level Estimated
Tue 06:55:00 PM 25.8154 122.6155 52° Northeast  Level Estimated
Tue 06:56:00 PM 25.9081 122.7495 52° Northeast  Level Estimated
Tue 06:57:00 PM 26.0007 122.8836 52° Northeast  Level Estimated
Tue 06:58:00 PM 26.0932 123.0179 53° Northeast  Level Estimated
Tue 06:59:00 PM 26.1855 123.1525 53° Northeast  Level Estimated
Tue 07:00:00 PM 26.2777 123.2872 53° Northeast  Level Estimated
Tue 07:01:00 PM 26.3698 123.4222 53° Northeast  Level Estimated
Tue 07:02:00 PM 26.4618 123.5574 53° Northeast  Level Estimated
Tue 07:03:00 PM 26.5536 123.6928 53° Northeast  Level Estimated
Tue 07:04:00 PM 26.6453 123.8285 53° Northeast  Level Estimated
Tue 07:05:00 PM 26.7369 123.9643 53° Northeast  Level Estimated
Tue 07:06:00 PM 26.8283 124.1004 53° Northeast  Level Estimated
Tue 07:07:00 PM 26.9196 124.2366 53° Northeast  Level Estimated
Tue 07:08:00 PM 27.0108 124.3732 53° Northeast  Level Estimated
Tue 07:09:00 PM 27.1018 124.5099 53° Northeast  Level Estimated
Tue 07:10:00 PM 27.1928 124.6468 53° Northeast  Level Estimated
Tue 07:11:00 PM 27.2835 124.7840 53° Northeast  Level Estimated
Tue 07:12:00 PM 27.3742 124.9214 53° Northeast  Level Estimated
Tue 07:13:00 PM 27.4647 125.0590 53° Northeast  Level Estimated
Tue 07:14:00 PM 27.5551 125.1969 53° Northeast  Level Estimated
Tue 07:15:00 PM 27.6453 125.3349 54° Northeast  Level Estimated
Tue 07:16:00 PM 27.7354 125.4732 54° Northeast  Level Estimated
Tue 07:17:00 PM 27.8254 125.6118 54° Northeast  Level Estimated
Tue 07:18:00 PM 27.9152 125.7505 54° Northeast  Level Estimated
Tue 07:19:00 PM 28.0049 125.8895 54° Northeast  Level Estimated
Tue 07:20:00 PM 28.0945 126.0287 54° Northeast  Level Estimated
Tue 07:21:00 PM 28.1839 126.1682 54° Northeast  Level Estimated
Tue 07:22:00 PM 28.2731 126.3079 54° Northeast  Level Estimated
Tue 07:23:00 PM 28.3623 126.4478 54° Northeast  Level Estimated
Tue 07:24:00 PM 28.4512 126.5880 54° Northeast  Level Estimated
Tue 07:25:00 PM 28.5401 126.7283 54° Northeast  Level Estimated
Tue 07:26:00 PM 28.6288 126.8690 54° Northeast  Level Estimated
Tue 07:27:00 PM 28.7173 127.0098 54° Northeast  Level Estimated
Tue 07:28:00 PM 28.8057 127.1510 54° Northeast  Level Estimated
Tue 07:29:00 PM 28.8940 127.2923 54° Northeast  Level Estimated
Tue 07:30:00 PM 28.9821 127.4339 55° Northeast  Level Estimated
Tue 07:31:00 PM 29.0700 127.5757 55° Northeast  Level Estimated
Tue 07:32:00 PM 29.1579 127.7178 55° Northeast  Level Estimated
Tue 07:33:00 PM 29.2455 127.8601 55° Northeast  Level Estimated
Tue 07:34:00 PM 29.3330 128.0027 55° Northeast  Level Estimated
Tue 07:35:00 PM 29.4204 128.1455 55° Northeast  Level Estimated
Tue 07:36:00 PM 29.5076 128.2885 55° Northeast  Level Estimated
Tue 07:37:00 PM 29.5946 128.4318 55° Northeast  Level Estimated
Tue 07:38:00 PM 29.6815 128.5753 55° Northeast  Level Estimated
Tue 07:39:00 PM 29.7683 128.7191 55° Northeast  Level Estimated
Tue 07:40:00 PM 29.8549 128.8632 55° Northeast  Level Estimated
Tue 07:41:00 PM 29.9413 129.0075 55° Northeast  Level Estimated
Tue 07:42:00 PM 30.0275 129.1520 55° Northeast  Level Estimated
Tue 07:43:00 PM 30.1137 129.2968 55° Northeast  Level Estimated
Tue 07:44:00 PM 30.1996 129.4418 56° Northeast  Level Estimated
Tue 07:45:00 PM 30.2854 129.5871 56° Northeast  Level Estimated
Tue 07:46:00 PM 30.3710 129.7327 56° Northeast  Level Estimated
Tue 07:47:00 PM 30.4565 129.8785 56° Northeast  Level Estimated
Tue 07:48:00 PM 30.5418 130.0245 56° Northeast  Level Estimated
Tue 07:49:00 PM 30.6270 130.1709 56° Northeast  Level Estimated
Tue 07:50:00 PM 30.7119 130.3174 56° Northeast  Level Estimated
Tue 07:51:00 PM 30.7968 130.4642 56° Northeast  Level Estimated
Tue 07:52:00 PM 30.8814 130.6113 56° Northeast  Level Estimated
Tue 07:53:00 PM 30.9659 130.7587 56° Northeast  Level Estimated
Tue 07:54:00 PM 31.0502 130.9063 56° Northeast  Level Estimated
Tue 07:55:00 PM 31.1344 131.0542 56° Northeast  Level Estimated
Tue 07:56:00 PM 31.2183 131.2023 56° Northeast  Level Estimated
Tue 07:57:00 PM 31.3022 131.3507 57° Northeast  Level Estimated
Tue 07:58:00 PM 31.3858 131.4994 57° Northeast  Level Estimated
Tue 07:59:00 PM 31.4693 131.6483 57° Northeast  Level Estimated
Tue 08:00:00 PM 31.5525 131.7975 57° Northeast  Level Estimated
Tue 08:01:00 PM 31.6357 131.9469 57° Northeast  Level Estimated
Tue 08:02:00 PM 31.7186 132.0967 57° Northeast  Level Estimated
Tue 08:03:00 PM 31.8014 132.2467 57° Northeast  Level Estimated
Tue 08:04:00 PM 31.8840 132.3969 57° Northeast  Level Estimated
Tue 08:05:00 PM 31.9664 132.5475 57° Northeast  Level Estimated
Tue 08:06:00 PM 32.0486 132.6983 57° Northeast  Level Estimated
Tue 08:07:00 PM 32.1307 132.8493 57° Northeast  Level Estimated
Tue 08:08:00 PM 32.2126 133.0007 57° Northeast  Level Estimated
Tue 08:09:00 PM 32.2943 133.1523 57° Northeast  Level Estimated
Tue 08:10:00 PM 32.3758 133.3042 58° Northeast  Level Estimated
Tue 08:11:00 PM 32.4571 133.4563 58° Northeast  Level Estimated
Tue 08:12:00 PM 32.5383 133.6088 58° Northeast  Level Estimated
Tue 08:13:00 PM 32.6193 133.7615 58° Northeast  Level Estimated
Tue 08:14:00 PM 32.7000 133.9145 58° Northeast  Level Estimated
Tue 08:15:00 PM 32.7806 134.0677 58° Northeast  Level Estimated
Tue 08:16:00 PM 32.8610 134.2213 58° Northeast  Level Estimated
Tue 08:17:00 PM 32.9413 134.3751 58° Northeast  Level Estimated
Tue 08:18:00 PM 33.0213 134.5292 58° Northeast  Level Estimated
Tue 08:19:00 PM 33.1011 134.6836 58° Northeast  Level Estimated
Tue 08:20:00 PM 33.1808 134.8383 58° Northeast  Level Estimated
Tue 08:21:00 PM 33.2603 134.9932 58° Northeast  Level Estimated
Tue 08:22:00 PM 33.3395 135.1484 59° Northeast  Level Estimated
Tue 08:23:00 PM 33.4186 135.3039 59° Northeast  Level Estimated
Tue 08:24:00 PM 33.4975 135.4597 59° Northeast  Level Estimated
Tue 08:25:00 PM 33.5762 135.6158 59° Northeast  Level Estimated
Tue 08:26:00 PM 33.6547 135.7722 59° Northeast  Level Estimated
Tue 08:27:00 PM 33.7329 135.9288 59° Northeast  Level Estimated
Tue 08:28:00 PM 33.8110 136.0857 59° Northeast  Level Estimated
Tue 08:29:00 PM 33.8889 136.2429 59° Northeast  Level Estimated
Tue 08:30:00 PM 33.9666 136.4004 59° Northeast  Level Estimated
Tue 08:31:00 PM 34.0441 136.5582 59° Northeast  Level Estimated
Tue 08:32:00 PM 34.1214 136.7163 59° Northeast  Level Estimated
Tue 08:33:00 PM 34.1985 136.8747 59° Northeast  Level Estimated
Tue 08:34:00 PM 34.2754 137.0333 60° Northeast  Level Estimated
Tue 08:35:00 PM 34.3521 137.1923 60° Northeast  Level Estimated
Tue 08:36:00 PM 34.4286 137.3515 60° Northeast  Level Estimated
Tue 08:37:00 PM 34.5048 137.5111 60° Northeast  Level Estimated
Tue 08:38:00 PM 34.5809 137.6709 60° Northeast  Level Estimated
Tue 08:39:00 PM 34.6567 137.8310 60° Northeast  Level Estimated
Tue 08:40:00 PM 34.7324 137.9914 60° Northeast  Level Estimated
Tue 08:41:00 PM 34.8078 138.1521 60° Northeast  Level Estimated
Tue 08:42:00 PM 34.8830 138.3131 60° Northeast  Level Estimated
Tue 08:43:00 PM 34.9580 138.4744 60° Northeast  Level Estimated
Tue 08:44:00 PM 35.0328 138.6360 60° Northeast  Level Estimated
Tue 08:45:00 PM 35.1074 138.7978 61° Northeast  Level Estimated
Tue 08:46:00 PM 35.1818 138.9600 61° Northeast  Level Estimated
Tue 08:47:00 PM 35.2559 139.1225 61° Northeast  Level Estimated
Tue 08:48:00 PM 35.3298 139.2853 61° Northeast  Level Estimated
Tue 08:49:00 PM 35.4036 139.4483 61° Northeast  Level Estimated
Tue 08:50:00 PM 35.4771 139.6117 61° Northeast  Level Estimated
Tue 08:51:00 PM 35.5503 139.7754 61° Northeast  Level Estimated
Tue 08:52:00 PM 35.5523 139.7797 61° Northeast  Level Estimated
Tue 08:53:00 PM 35.5523 139.7797 122° Southeast  Level Estimated
Tue 08:54:00 PM 35.5523 139.7797 122° Southeast  Level Estimated
Tue 08:55:00 PM 35.5523 139.7797 122° Southeast  Level Estimated
Tue 08:56:00 PM 35.5523 139.7797 122° Southeast  Level Estimated
Tue 08:57:00 PM 35.5523 139.7797 122° Southeast  Level Estimated
Tue 08:58:00 PM 35.5523 139.7797 122° Southeast  Level Estimated
Tue 08:59:00 PM 35.5523 139.7797 122° Southeast  Level Estimated
Tue 09:00:00 PM 35.5523 139.7797 122° Southeast  Level Estimated
Tue 09:01:00 PM 35.5523 139.7797 122° Southeast  Level Estimated
Tue 09:02:00 PM 35.5523 139.7797 122° Southeast  Level Estimated
Tue 09:03:00 PM 35.5523 139.7797 122° Southeast  Level Estimated
Tue 09:04:00 PM 35.5523 139.7797 122° Southeast  Level Estimated
Tue 09:05:00 PM 35.5523 139.7797 122° Southeast  Level Estimated
Tue 09:06:00 PM 35.5523 139.7797 122° Southeast  Level Estimated
Tue 09:07:00 PM 35.5523 139.7797 122° Southeast  Level Estimated

Login

Don't have an account? Register now (free) for customized features, flight alerts, and more!